Аэропорт: Уральск. Уральск

ICAO: UARR

METAR:
2022-01-28 09:00:00
UARR 280900Z 06005MPS CAVOK M08/M10 Q1016 NOSIG RMK QFE758/1011
METAR:
2022-01-28 08:01:00
TAF UARR 280801Z 2809/2818 09004MPS 9999 BKN020 TEMPO 2809/2812 04005MPS TEMPO 2813/2818 3100 BR BKN011